createdAt,value
2018-09-30T00:00:07.024Z,4.42
2018-09-30T00:01:06.969Z,4.43
2018-09-30T00:02:06.949Z,4.46
2018-09-30T00:03:06.944Z,4.39
2018-09-30T00:04:06.929Z,4.42
2018-09-30T00:05:06.915Z,4.39
2018-09-30T00:06:06.948Z,4.41
2018-09-30T00:07:06.896Z,4.51
2018-09-30T00:08:06.883Z,4.43
2018-09-30T00:09:06.880Z,4.48
2018-09-30T00:10:06.863Z,4.39
2018-09-30T00:11:06.849Z,4.46
2018-09-30T00:12:06.923Z,4.35
2018-09-30T00:13:06.841Z,4.46
2018-09-30T00:14:06.830Z,4.46
2018-09-30T00:15:06.814Z,4.41
2018-09-30T00:16:06.798Z,4.51
2018-09-30T00:17:06.784Z,4.36
2018-09-30T00:18:06.834Z,4.42
2018-09-30T00:19:06.759Z,4.51
2018-09-30T00:20:06.748Z,4.46
2018-09-30T00:21:06.745Z,4.45
2018-09-30T00:22:06.740Z,4.46
2018-09-30T00:23:06.774Z,4.54
2018-09-30T00:24:06.780Z,4.48
2018-09-30T00:25:06.711Z,4.49
2018-09-30T00:26:06.694Z,4.49
2018-09-30T00:27:06.685Z,4.53
2018-09-30T00:28:06.767Z,4.59
2018-09-30T00:29:06.656Z,4.56
2018-09-30T00:30:06.677Z,4.51
2018-09-30T00:31:06.664Z,4.59
2018-09-30T00:32:06.624Z,4.51
2018-09-30T00:33:06.610Z,4.57
2018-09-30T00:34:06.596Z,4.54
2018-09-30T00:35:06.594Z,4.59
2018-09-30T00:36:06.634Z,4.61
2018-09-30T00:37:06.563Z,4.56
2018-09-30T00:38:06.548Z,4.56
2018-09-30T00:39:06.537Z,4.59
2018-09-30T00:40:06.535Z,4.54
2018-09-30T00:41:06.519Z,4.56
2018-09-30T00:42:06.552Z,4.59
2018-09-30T00:43:06.498Z,4.57
2018-09-30T00:44:06.489Z,4.60
2018-09-30T00:45:06.595Z,4.60
2018-09-30T00:46:06.465Z,4.57
2018-09-30T00:47:06.521Z,4.57
2018-09-30T00:48:06.579Z,4.57
2018-09-30T00:49:06.440Z,4.57
2018-09-30T00:50:06.415Z,4.59
2018-09-30T00:51:06.415Z,4.49
2018-09-30T00:52:06.397Z,4.43
2018-09-30T00:53:06.387Z,4.39
2018-09-30T00:54:06.415Z,4.42
2018-09-30T00:55:06.374Z,4.36
2018-09-30T00:56:06.385Z,4.30
2018-09-30T00:57:06.342Z,4.28
2018-09-30T00:58:06.339Z,4.36
2018-09-30T00:59:06.327Z,4.28
2018-09-30T01:00:06.349Z,4.35
2018-09-30T01:01:06.302Z,4.34
2018-09-30T01:02:06.325Z,4.31
2018-09-30T01:03:06.277Z,4.34
2018-09-30T01:04:06.304Z,4.42
2018-09-30T01:05:06.254Z,4.34
2018-09-30T01:06:06.276Z,4.42
2018-09-30T01:07:06.281Z,4.28
2018-09-30T01:08:06.221Z,4.31
2018-09-30T01:09:06.221Z,4.42
2018-09-30T01:10:06.249Z,4.35
2018-09-30T01:11:06.199Z,4.41
2018-09-30T01:12:06.253Z,4.30
2018-09-30T01:13:06.167Z,4.38
2018-09-30T01:14:06.151Z,4.24
2018-09-30T01:15:06.168Z,4.24
2018-09-30T01:16:06.140Z,4.35
2018-09-30T01:17:06.126Z,4.27
2018-09-30T01:18:06.200Z,4.23
2018-09-30T01:19:06.110Z,4.26
2018-09-30T01:20:06.118Z,4.24
2018-09-30T01:21:06.084Z,4.20
2018-09-30T01:22:06.077Z,4.31
2018-09-30T01:23:06.069Z,4.26
2018-09-30T01:24:06.123Z,4.20
2018-09-30T01:25:06.034Z,4.23
2018-09-30T01:26:06.029Z,4.24
2018-09-30T01:27:06.032Z,4.26
2018-09-30T01:28:06.006Z,4.27
2018-09-30T01:29:05.999Z,4.23
2018-09-30T01:30:06.050Z,4.20
2018-09-30T01:31:05.976Z,4.16
2018-09-30T01:32:05.995Z,4.21
2018-09-30T01:33:05.955Z,4.17
2018-09-30T01:34:05.939Z,4.18
2018-09-30T01:35:05.920Z,4.08
2018-09-30T01:36:05.964Z,4.05
2018-09-30T01:37:05.919Z,4.09
2018-09-30T01:38:05.908Z,4.08
2018-09-30T01:39:05.882Z,4.10
2018-09-30T01:40:05.894Z,4.05
2018-09-30T01:41:05.890Z,4.09
2018-09-30T01:42:05.941Z,4.05
2018-09-30T01:43:05.892Z,4.06
2018-09-30T01:44:05.841Z,4.09
2018-09-30T01:45:05.847Z,4.06
2018-09-30T01:46:05.805Z,4.06
2018-09-30T01:47:05.816Z,4.09
2018-09-30T01:48:05.824Z,4.13
2018-09-30T01:49:05.768Z,3.94
2018-09-30T01:50:05.763Z,3.87
2018-09-30T01:51:05.751Z,3.91
2018-09-30T01:52:05.750Z,3.94
2018-09-30T01:53:05.728Z,3.85
2018-09-30T01:54:05.749Z,3.87
2018-09-30T01:55:05.724Z,3.87
2018-09-30T01:56:05.704Z,3.88
2018-09-30T01:57:05.689Z,3.84
2018-09-30T01:58:05.679Z,3.81
2018-09-30T01:59:05.663Z,3.84
2018-09-30T02:00:05.862Z,3.80
2018-09-30T02:01:05.646Z,3.82
2018-09-30T02:02:05.668Z,3.84
2018-09-30T02:03:05.617Z,3.80
2018-09-30T02:04:05.612Z,3.80
2018-09-30T02:05:05.609Z,3.81
2018-09-30T02:06:05.632Z,3.78
2018-09-30T02:07:05.588Z,3.76
2018-09-30T02:08:05.577Z,3.85
2018-09-30T02:09:05.553Z,3.80
2018-09-30T02:10:05.568Z,3.81
2018-09-30T02:11:05.541Z,3.70
2018-09-30T02:12:05.563Z,3.72
2018-09-30T02:13:05.522Z,3.64
2018-09-30T02:14:05.505Z,3.66
2018-09-30T02:15:05.488Z,3.63
2018-09-30T02:16:05.486Z,3.72
2018-09-30T02:17:05.470Z,3.64
2018-09-30T02:18:05.554Z,3.72
2018-09-30T02:19:05.446Z,3.64
2018-09-30T02:20:05.433Z,3.67
2018-09-30T02:21:05.420Z,3.66
2018-09-30T02:22:05.412Z,3.72
2018-09-30T02:23:05.407Z,3.63
2018-09-30T02:24:05.454Z,3.62
2018-09-30T02:25:05.390Z,3.70
2018-09-30T02:26:05.382Z,3.56
2018-09-30T02:27:05.357Z,3.69
2018-09-30T02:28:05.344Z,3.56
2018-09-30T02:29:05.353Z,3.54
2018-09-30T02:30:05.362Z,3.54
2018-09-30T02:31:05.324Z,3.55
2018-09-30T02:32:05.310Z,3.51
2018-09-30T02:33:05.292Z,3.48
2018-09-30T02:34:05.291Z,3.60
2018-09-30T02:35:05.279Z,3.63
2018-09-30T02:36:05.324Z,3.55
2018-09-30T02:37:05.253Z,3.59
2018-09-30T02:38:05.244Z,3.59
2018-09-30T02:39:05.235Z,3.72
2018-09-30T02:40:05.220Z,3.70
2018-09-30T02:41:05.209Z,3.60
2018-09-30T02:42:05.233Z,3.64
2018-09-30T02:43:05.191Z,3.64
2018-09-30T02:44:05.176Z,3.60
2018-09-30T02:45:05.167Z,3.52
2018-09-30T02:46:05.189Z,3.51
2018-09-30T02:47:05.197Z,3.72
2018-09-30T02:48:05.164Z,3.54
2018-09-30T02:49:05.134Z,3.66
2018-09-30T02:50:05.151Z,3.62
2018-09-30T02:51:05.098Z,3.59
2018-09-30T02:52:05.087Z,3.72
2018-09-30T02:53:05.076Z,3.70
2018-09-30T02:54:05.103Z,3.66
2018-09-30T02:55:05.083Z,3.60
2018-09-30T02:56:05.043Z,3.66
2018-09-30T02:57:05.045Z,3.56
2018-09-30T02:58:05.044Z,3.52
2018-09-30T02:59:05.011Z,3.54
2018-09-30T03:00:05.051Z,3.49
2018-09-30T03:01:04.993Z,3.70
2018-09-30T03:02:04.982Z,3.49
2018-09-30T03:03:04.986Z,3.52
2018-09-30T03:04:04.971Z,3.52
2018-09-30T03:05:04.957Z,3.45
2018-09-30T03:06:04.980Z,3.62
2018-09-30T03:07:04.938Z,3.62
2018-09-30T03:08:04.917Z,3.56
2018-09-30T03:09:04.910Z,3.64
2018-09-30T03:10:04.901Z,3.62
2018-09-30T03:11:04.882Z,3.60
2018-09-30T03:12:04.914Z,3.62
2018-09-30T03:13:04.866Z,3.55
2018-09-30T03:14:04.845Z,3.52
2018-09-30T03:15:04.852Z,3.48
2018-09-30T03:16:04.826Z,3.54
2018-09-30T03:17:04.819Z,3.56
2018-09-30T03:18:04.847Z,3.52
2018-09-30T03:19:04.792Z,3.52
2018-09-30T03:20:04.786Z,3.51
2018-09-30T03:21:04.770Z,3.49
2018-09-30T03:22:04.788Z,3.54
2018-09-30T03:23:04.754Z,3.41
2018-09-30T03:24:04.773Z,3.51
2018-09-30T03:25:04.734Z,3.59
2018-09-30T03:26:04.720Z,3.52
2018-09-30T03:27:04.705Z,3.56
2018-09-30T03:28:04.709Z,3.52
2018-09-30T03:29:04.693Z,3.51
2018-09-30T03:30:04.785Z,3.44
2018-09-30T03:31:04.687Z,3.45
2018-09-30T03:32:04.669Z,3.45
2018-09-30T03:33:04.641Z,3.41
2018-09-30T03:34:04.636Z,3.36
2018-09-30T03:35:04.662Z,3.30
2018-09-30T03:36:04.681Z,3.27
2018-09-30T03:37:04.597Z,3.33
2018-09-30T03:38:04.588Z,3.27
2018-09-30T03:39:04.581Z,3.26
2018-09-30T03:40:04.595Z,3.23
2018-09-30T03:41:04.558Z,3.27
2018-09-30T03:42:04.585Z,3.14
2018-09-30T03:43:04.541Z,3.20
2018-09-30T03:44:04.524Z,3.17
2018-09-30T03:45:04.560Z,3.07
2018-09-30T03:46:04.518Z,3.11
2018-09-30T03:47:04.494Z,3.14
2018-09-30T03:48:04.516Z,3.08
2018-09-30T03:49:04.478Z,3.05
2018-09-30T03:50:04.456Z,3.04
2018-09-30T03:51:04.452Z,3.08
2018-09-30T03:52:04.434Z,3.00
2018-09-30T03:53:04.459Z,2.91
2018-09-30T03:54:04.447Z,2.87
2018-09-30T03:55:04.409Z,2.84
2018-09-30T03:56:04.395Z,2.81
2018-09-30T03:57:04.377Z,2.82
2018-09-30T03:58:04.372Z,2.87
2018-09-30T03:59:04.367Z,2.79
2018-09-30T04:00:04.401Z,2.71
2018-09-30T04:01:04.335Z,2.76
2018-09-30T04:02:04.355Z,2.72
2018-09-30T04:03:04.330Z,2.73
2018-09-30T04:04:04.297Z,2.73
2018-09-30T04:05:04.305Z,2.75
2018-09-30T04:06:04.355Z,2.73
2018-09-30T04:07:04.276Z,2.71
2018-09-30T04:08:04.264Z,2.73
2018-09-30T04:09:04.253Z,2.69
2018-09-30T04:10:04.309Z,2.61
2018-09-30T04:11:04.225Z,2.69
2018-09-30T04:12:04.245Z,2.66
2018-09-30T04:13:04.213Z,2.72
2018-09-30T04:14:04.215Z,2.65
2018-09-30T04:15:04.182Z,2.58
2018-09-30T04:16:04.171Z,2.66
2018-09-30T04:17:04.314Z,2.72
2018-09-30T04:18:04.181Z,2.61
2018-09-30T04:19:04.192Z,2.60
2018-09-30T04:20:04.146Z,2.69
2018-09-30T04:21:04.119Z,2.53
2018-09-30T04:22:04.112Z,2.55
2018-09-30T04:23:04.095Z,2.57
2018-09-30T04:24:04.131Z,2.57
2018-09-30T04:25:04.103Z,2.61
2018-09-30T04:26:04.105Z,2.63
2018-09-30T04:27:04.077Z,2.57
2018-09-30T04:28:04.053Z,2.60
2018-09-30T04:29:04.039Z,2.66
2018-09-30T04:30:04.062Z,2.69
2018-09-30T04:31:04.022Z,2.61
2018-09-30T04:32:04.031Z,2.53
2018-09-30T04:33:04.006Z,2.54
2018-09-30T04:34:03.988Z,2.54
2018-09-30T04:35:03.971Z,2.47
2018-09-30T04:36:04.029Z,2.57
2018-09-30T04:37:03.946Z,2.47
2018-09-30T04:38:03.967Z,2.57
2018-09-30T04:39:03.922Z,2.50
2018-09-30T04:40:03.914Z,2.53
2018-09-30T04:41:03.907Z,2.47
2018-09-30T04:42:03.945Z,2.48
2018-09-30T04:43:03.885Z,2.48
2018-09-30T04:44:03.883Z,2.53
2018-09-30T04:45:03.890Z,2.53
2018-09-30T04:46:03.858Z,2.47
2018-09-30T04:47:03.839Z,2.51
2018-09-30T04:48:03.881Z,2.47
2018-09-30T04:49:03.825Z,2.55
2018-09-30T04:50:03.882Z,2.60
2018-09-30T04:51:03.798Z,2.57
2018-09-30T04:52:03.793Z,2.55
2018-09-30T04:53:03.792Z,2.58
2018-09-30T04:54:03.811Z,2.54
2018-09-30T04:55:03.771Z,2.57
2018-09-30T04:56:03.762Z,2.55
2018-09-30T04:57:03.732Z,2.58
2018-09-30T04:58:03.732Z,2.66
2018-09-30T04:59:03.712Z,2.65
2018-09-30T05:00:03.737Z,2.58
2018-09-30T05:01:03.690Z,2.68
2018-09-30T05:02:03.694Z,2.58
2018-09-30T05:03:03.666Z,2.65
2018-09-30T05:04:03.655Z,2.68
2018-09-30T05:05:03.651Z,2.68
2018-09-30T05:06:03.670Z,2.61
2018-09-30T05:07:03.642Z,2.65
2018-09-30T05:08:03.619Z,2.61
2018-09-30T05:09:03.600Z,2.60
2018-09-30T05:10:03.607Z,2.69
2018-09-30T05:11:03.594Z,2.63
2018-09-30T05:12:03.628Z,2.65
2018-09-30T05:13:03.559Z,2.65
2018-09-30T05:14:03.556Z,2.65
2018-09-30T05:15:03.559Z,2.65
2018-09-30T05:16:03.586Z,2.60
2018-09-30T05:17:03.514Z,2.54
2018-09-30T05:18:03.552Z,2.57
2018-09-30T05:19:03.498Z,2.55
2018-09-30T05:20:03.490Z,2.53
2018-09-30T05:21:03.483Z,2.48
2018-09-30T05:22:03.474Z,2.57
2018-09-30T05:23:03.451Z,2.50
2018-09-30T05:24:03.473Z,2.54
2018-09-30T05:25:03.422Z,2.43
2018-09-30T05:26:03.418Z,2.39
2018-09-30T05:27:03.410Z,2.39
2018-09-30T05:28:03.405Z,2.37
2018-09-30T05:29:03.404Z,2.47
2018-09-30T05:30:03.404Z,2.36
2018-09-30T05:31:03.395Z,2.40
2018-09-30T05:32:03.373Z,2.39
2018-09-30T05:33:03.341Z,2.40
2018-09-30T05:34:03.328Z,2.45
2018-09-30T05:35:03.335Z,2.42
2018-09-30T05:36:03.353Z,2.48
2018-09-30T05:37:03.317Z,2.36
2018-09-30T05:38:03.282Z,2.54
2018-09-30T05:39:03.272Z,2.53
2018-09-30T05:40:03.269Z,2.50
2018-09-30T05:41:03.248Z,2.50
2018-09-30T05:42:03.298Z,2.48
2018-09-30T05:43:03.225Z,2.53
2018-09-30T05:44:03.219Z,2.54
2018-09-30T05:45:03.207Z,2.63
2018-09-30T05:46:03.220Z,2.57
2018-09-30T05:47:03.197Z,2.65
2018-09-30T05:48:03.222Z,2.48
2018-09-30T05:49:03.206Z,2.43
2018-09-30T05:50:03.154Z,2.51
2018-09-30T05:51:03.148Z,2.39
2018-09-30T05:52:03.131Z,2.48
2018-09-30T05:53:03.117Z,2.54
2018-09-30T05:54:03.220Z,2.47
2018-09-30T05:55:03.113Z,2.55
2018-09-30T05:56:03.089Z,2.53
2018-09-30T05:57:03.083Z,2.51
2018-09-30T05:58:03.107Z,2.58
2018-09-30T05:59:03.059Z,2.57
2018-09-30T06:00:03.082Z,2.58
2018-09-30T06:01:03.029Z,2.60
2018-09-30T06:02:03.044Z,2.60
2018-09-30T06:03:03.018Z,2.57
2018-09-30T06:04:03.024Z,2.75
2018-09-30T06:05:03.003Z,2.71
2018-09-30T06:06:03.072Z,2.81
2018-09-30T06:07:02.972Z,2.82
2018-09-30T06:08:02.961Z,2.79
2018-09-30T06:09:02.967Z,2.91
2018-09-30T06:10:02.939Z,2.86
2018-09-30T06:11:02.924Z,2.82
2018-09-30T06:12:02.993Z,2.94
2018-09-30T06:13:02.903Z,3.00
2018-09-30T06:14:02.946Z,3.02
2018-09-30T06:15:02.888Z,3.05
2018-09-30T06:16:02.914Z,3.09
2018-09-30T06:17:02.870Z,3.07
2018-09-30T06:18:02.908Z,3.12
2018-09-30T06:19:02.846Z,3.12
2018-09-30T06:20:02.831Z,3.23
2018-09-30T06:21:02.821Z,3.35
2018-09-30T06:22:02.815Z,3.32
2018-09-30T06:23:02.793Z,3.41
2018-09-30T06:24:02.905Z,3.41
2018-09-30T06:25:02.778Z,3.52
2018-09-30T06:26:02.762Z,3.51
2018-09-30T06:27:02.744Z,3.54
2018-09-30T06:28:02.733Z,3.54
2018-09-30T06:29:02.722Z,3.64
2018-09-30T06:30:02.748Z,3.55
2018-09-30T06:31:02.717Z,3.54
2018-09-30T06:32:02.708Z,3.62
2018-09-30T06:33:02.684Z,3.66
2018-09-30T06:34:02.694Z,3.64
2018-09-30T06:35:02.665Z,3.72
2018-09-30T06:36:02.765Z,3.74
2018-09-30T06:37:02.654Z,3.82
2018-09-30T06:38:02.739Z,3.82
2018-09-30T06:39:02.673Z,3.84
2018-09-30T06:40:02.623Z,3.98
2018-09-30T06:41:02.593Z,3.94
2018-09-30T06:42:02.638Z,4.03
2018-09-30T06:43:02.700Z,4.09
2018-09-30T06:44:02.567Z,4.08
2018-09-30T06:45:02.677Z,4.23
2018-09-30T06:46:02.598Z,4.23
2018-09-30T06:47:02.529Z,4.35
2018-09-30T06:48:02.627Z,4.49
2018-09-30T06:49:02.517Z,4.53
2018-09-30T06:50:02.500Z,4.59
2018-09-30T06:51:02.571Z,4.64
2018-09-30T06:52:02.556Z,4.66
2018-09-30T06:53:02.489Z,4.74
2018-09-30T06:54:02.490Z,4.74
2018-09-30T06:55:02.449Z,4.82
2018-09-30T06:56:02.432Z,4.86
2018-09-30T06:57:02.417Z,4.79
2018-09-30T06:58:02.451Z,4.93
2018-09-30T06:59:02.426Z,4.96
2018-09-30T07:00:02.488Z,4.98
2018-09-30T07:01:02.375Z,4.97
2018-09-30T07:02:02.380Z,4.94
2018-09-30T07:03:02.423Z,4.98
2018-09-30T07:04:02.380Z,5.06
2018-09-30T07:05:02.350Z,5.14
2018-09-30T07:06:02.414Z,5.16
2018-09-30T07:07:02.342Z,5.22
2018-09-30T07:08:02.296Z,5.27
2018-09-30T07:09:02.304Z,5.29
2018-09-30T07:10:02.285Z,5.36
2018-09-30T07:11:02.272Z,5.33
2018-09-30T07:12:02.289Z,5.39
2018-09-30T07:13:02.256Z,5.37
2018-09-30T07:14:02.239Z,5.48
2018-09-30T07:15:02.215Z,5.51
2018-09-30T07:16:02.242Z,5.54
2018-09-30T07:17:02.306Z,5.65
2018-09-30T07:18:02.221Z,5.69
2018-09-30T07:19:02.229Z,5.72
2018-09-30T07:20:02.238Z,5.66
2018-09-30T07:21:02.231Z,5.80
2018-09-30T07:22:02.159Z,5.76
2018-09-30T07:23:02.148Z,5.97
2018-09-30T07:24:02.176Z,5.94
2018-09-30T07:25:02.107Z,6.03
2018-09-30T07:26:02.095Z,6.16
2018-09-30T07:27:02.096Z,6.19
2018-09-30T07:28:02.075Z,6.27
2018-09-30T07:29:02.069Z,6.32
2018-09-30T07:30:02.131Z,6.35
2018-09-30T07:31:02.072Z,6.52
2018-09-30T07:32:02.063Z,6.47
2018-09-30T07:33:02.020Z,6.63
2018-09-30T07:34:02.069Z,6.70
2018-09-30T07:35:02.010Z,6.75
2018-09-30T07:36:02.043Z,6.73
2018-09-30T07:37:01.984Z,6.79
2018-09-30T07:38:01.966Z,6.85
2018-09-30T07:39:02.007Z,6.86
2018-09-30T07:40:01.949Z,6.88
2018-09-30T07:41:01.935Z,6.88
2018-09-30T07:42:01.980Z,7.00
2018-09-30T07:43:01.988Z,6.99
2018-09-30T07:44:01.901Z,7.08
2018-09-30T07:45:01.899Z,7.11
2018-09-30T07:46:01.874Z,7.21
2018-09-30T07:47:01.863Z,7.29
2018-09-30T07:48:01.939Z,7.29
2018-09-30T07:49:01.921Z,7.24
2018-09-30T07:50:01.887Z,7.26
2018-09-30T07:51:01.821Z,7.37
2018-09-30T07:52:01.828Z,7.46
2018-09-30T07:53:01.796Z,7.60
2018-09-30T07:54:01.830Z,7.62
2018-09-30T07:55:01.776Z,7.73
2018-09-30T07:56:01.782Z,7.86
2018-09-30T07:57:01.758Z,7.91
2018-09-30T07:58:01.743Z,8.02
2018-09-30T07:59:01.787Z,7.98
2018-09-30T08:00:01.754Z,8.13
2018-09-30T08:01:01.717Z,8.23
2018-09-30T08:02:01.698Z,8.29
2018-09-30T08:03:01.688Z,8.34
2018-09-30T08:04:01.678Z,8.41
2018-09-30T08:05:01.678Z,8.49
2018-09-30T08:06:01.706Z,8.63
2018-09-30T08:07:01.652Z,8.55
2018-09-30T08:08:01.642Z,8.63
2018-09-30T08:09:01.626Z,8.70
2018-09-30T08:10:01.615Z,8.86
2018-09-30T08:11:01.622Z,8.90
2018-09-30T08:12:01.623Z,8.93
2018-09-30T08:13:01.612Z,9.04
2018-09-30T08:14:01.584Z,9.09
2018-09-30T08:15:01.560Z,9.11
2018-09-30T08:16:01.550Z,9.12
2018-09-30T08:17:01.595Z,9.16
2018-09-30T08:18:01.551Z,9.40
2018-09-30T08:19:01.513Z,9.37
2018-09-30T08:20:01.513Z,9.41
2018-09-30T08:21:01.489Z,9.57
2018-09-30T08:22:01.483Z,9.66
2018-09-30T08:23:01.487Z,9.65
2018-09-30T08:24:01.579Z,9.77
2018-09-30T08:25:01.455Z,9.88
2018-09-30T08:26:01.433Z,9.94
2018-09-30T08:27:01.420Z,10.02
2018-09-30T08:28:01.445Z,10.10
2018-09-30T08:29:01.414Z,10.24
2018-09-30T08:30:01.425Z,10.36
2018-09-30T08:31:01.387Z,10.31
2018-09-30T08:32:01.378Z,10.41
2018-09-30T08:33:01.359Z,10.45
2018-09-30T08:34:01.365Z,10.55
2018-09-30T08:35:01.333Z,10.60
2018-09-30T08:36:01.374Z,10.73
2018-09-30T08:37:01.325Z,10.68
2018-09-30T08:38:01.296Z,10.70
2018-09-30T08:39:01.303Z,10.79
2018-09-30T08:40:01.427Z,10.76
2018-09-30T08:41:01.277Z,10.91
2018-09-30T08:42:01.360Z,11.01
2018-09-30T08:43:01.241Z,10.97
2018-09-30T08:44:01.250Z,10.97
2018-09-30T08:45:01.223Z,11.09
2018-09-30T08:46:01.210Z,11.12
2018-09-30T08:47:01.241Z,11.20
2018-09-30T08:48:01.231Z,11.19
2018-09-30T08:49:01.178Z,11.27
2018-09-30T08:50:01.164Z,11.33
2018-09-30T08:51:01.151Z,11.37
2018-09-30T08:52:01.164Z,11.36
2018-09-30T08:53:01.134Z,11.45
2018-09-30T08:54:01.241Z,11.51
2018-09-30T08:55:01.111Z,11.40
2018-09-30T08:56:01.143Z,11.55
2018-09-30T08:57:01.084Z,11.62
2018-09-30T08:58:01.132Z,11.64
2018-09-30T08:59:01.064Z,11.73
2018-09-30T09:00:01.109Z,11.82
2018-09-30T09:01:01.041Z,11.93
2018-09-30T09:02:01.032Z,12.13
2018-09-30T09:03:01.046Z,12.23
2018-09-30T09:04:01.040Z,12.36
2018-09-30T09:05:00.998Z,12.41
2018-09-30T09:06:01.024Z,12.48
2018-09-30T09:07:00.976Z,12.38
2018-09-30T09:08:00.966Z,12.47
2018-09-30T09:09:00.958Z,12.38
2018-09-30T09:10:00.957Z,12.44
2018-09-30T09:11:00.932Z,12.36
2018-09-30T09:12:00.951Z,12.51
2018-09-30T09:13:00.911Z,12.50
2018-09-30T09:14:00.900Z,12.48
2018-09-30T09:15:00.888Z,12.55
2018-09-30T09:16:00.885Z,12.66
2018-09-30T09:17:00.891Z,12.79
2018-09-30T09:18:00.897Z,12.68
2018-09-30T09:19:00.846Z,12.80
2018-09-30T09:20:00.832Z,12.71
2018-09-30T09:21:00.830Z,12.90
2018-09-30T09:22:00.812Z,12.84
2018-09-30T09:23:00.802Z,12.87
2018-09-30T09:24:01.093Z,12.95
2018-09-30T09:25:00.778Z,12.88
2018-09-30T09:26:00.770Z,12.96
2018-09-30T09:27:00.754Z,12.95
2018-09-30T09:28:00.759Z,12.96
2018-09-30T09:29:00.740Z,13.04
2018-09-30T09:30:00.760Z,13.05
2018-09-30T09:31:00.711Z,13.06
2018-09-30T09:32:00.697Z,13.20
2018-09-30T09:33:00.751Z,13.17
2018-09-30T09:34:00.678Z,13.20
2018-09-30T09:35:00.715Z,13.19
2018-09-30T09:36:00.720Z,13.30
2018-09-30T09:37:00.642Z,13.29
2018-09-30T09:38:00.632Z,13.38
2018-09-30T09:39:00.620Z,13.42
2018-09-30T09:40:00.621Z,13.57
2018-09-30T09:41:00.618Z,13.57
2018-09-30T09:42:00.636Z,13.60
2018-09-30T09:43:00.611Z,13.75
2018-09-30T09:44:00.563Z,13.71
2018-09-30T09:45:00.553Z,13.76
2018-09-30T09:46:00.543Z,13.73
2018-09-30T09:47:00.623Z,13.80
2018-09-30T09:48:00.561Z,13.79
2018-09-30T09:49:00.507Z,13.75
2018-09-30T09:50:00.495Z,13.78
2018-09-30T09:51:00.483Z,13.98
2018-09-30T09:52:00.474Z,14.04
2018-09-30T09:53:00.497Z,13.98
2018-09-30T09:54:00.508Z,14.04
2018-09-30T09:55:00.439Z,14.13
2018-09-30T09:56:00.429Z,14.04
2018-09-30T09:57:00.414Z,14.04
2018-09-30T09:58:00.402Z,14.15
2018-09-30T09:59:00.463Z,14.23
2018-09-30T10:00:00.431Z,14.34
2018-09-30T10:01:00.368Z,14.37
2018-09-30T10:02:00.357Z,14.34
2018-09-30T10:03:00.346Z,14.49
2018-09-30T10:04:00.333Z,14.46
2018-09-30T10:05:00.374Z,14.51
2018-09-30T10:06:00.363Z,14.52
2018-09-30T10:07:00.300Z,14.53
2018-09-30T10:08:00.289Z,14.48
2018-09-30T10:09:00.276Z,14.55
2018-09-30T10:10:00.278Z,14.58
2018-09-30T10:11:00.255Z,14.66
2018-09-30T10:12:00.347Z,14.55
2018-09-30T10:13:00.236Z,14.61
2018-09-30T10:14:00.218Z,14.61
2018-09-30T10:15:00.212Z,14.67
2018-09-30T10:16:00.222Z,14.82
2018-09-30T10:17:00.189Z,14.89
2018-09-30T10:18:00.231Z,14.83
2018-09-30T10:19:00.165Z,14.71
2018-09-30T10:20:00.157Z,14.86
2018-09-30T10:21:00.140Z,14.83
2018-09-30T10:22:00.130Z,14.89
2018-09-30T10:23:00.118Z,14.90
2018-09-30T10:24:00.160Z,14.96
2018-09-30T10:25:00.099Z,14.99
2018-09-30T10:26:00.090Z,15.03
2018-09-30T10:27:00.075Z,15.23
2018-09-30T10:28:00.066Z,15.26
2018-09-30T10:29:00.051Z,15.26
2018-09-30T10:30:00.104Z,15.20
2018-09-30T10:31:00.029Z,15.10
2018-09-30T10:32:00.023Z,15.22
2018-09-30T10:33:00.015Z,15.32
2018-09-30T10:34:00.016Z,15.33
2018-09-30T10:34:59.985Z,15.23
2018-09-30T10:36:00.021Z,15.20
2018-09-30T10:36:59.961Z,15.17
2018-09-30T10:37:59.961Z,15.17
2018-09-30T10:39:00.110Z,15.25
2018-09-30T10:39:59.931Z,15.26
2018-09-30T10:40:59.926Z,15.29
2018-09-30T10:41:59.956Z,15.58
2018-09-30T10:42:59.902Z,15.51
2018-09-30T10:43:59.891Z,15.68
2018-09-30T10:44:59.875Z,15.51
2018-09-30T10:45:59.861Z,15.54
2018-09-30T10:46:59.852Z,15.50
2018-09-30T10:47:59.904Z,15.44
2018-09-30T10:48:59.829Z,15.48
2018-09-30T10:49:59.824Z,15.47
2018-09-30T10:50:59.806Z,15.47
2018-09-30T10:51:59.796Z,15.32
2018-09-30T10:52:59.786Z,15.44
2018-09-30T10:53:59.863Z,15.48
2018-09-30T10:54:59.764Z,15.40
2018-09-30T10:55:59.751Z,15.50
2018-09-30T10:56:59.774Z,15.52
2018-09-30T10:57:59.730Z,15.56
2018-09-30T10:58:59.718Z,15.63
2018-09-30T10:59:59.788Z,15.73
2018-09-30T11:00:59.696Z,15.72
2018-09-30T11:01:59.701Z,15.70
2018-09-30T11:02:59.681Z,15.80
2018-09-30T11:03:59.666Z,15.76
2018-09-30T11:04:59.652Z,15.81
2018-09-30T11:05:59.694Z,15.96
2018-09-30T11:06:59.637Z,15.95
2018-09-30T11:07:59.619Z,15.87
2018-09-30T11:08:59.607Z,15.96
2018-09-30T11:09:59.653Z,15.93
2018-09-30T11:10:59.620Z,15.88
2018-09-30T11:11:59.649Z,15.91
2018-09-30T11:12:59.572Z,16.09
2018-09-30T11:13:59.555Z,15.98
2018-09-30T11:14:59.543Z,15.96
2018-09-30T11:15:59.542Z,15.95
2018-09-30T11:16:59.548Z,15.95
2018-09-30T11:17:59.573Z,15.93
2018-09-30T11:18:59.497Z,15.96
2018-09-30T11:19:59.491Z,15.90
2018-09-30T11:21:00.052Z,15.96
2018-09-30T11:21:59.473Z,15.99
2018-09-30T11:22:59.453Z,16.10
2018-09-30T11:23:59.510Z,16.18
2018-09-30T11:24:59.428Z,16.33
2018-09-30T11:25:59.425Z,16.18
2018-09-30T11:26:59.406Z,16.25
2018-09-30T11:27:59.404Z,16.29
2018-09-30T11:28:59.386Z,16.43
2018-09-30T11:29:59.452Z,16.47
2018-09-30T11:30:59.362Z,16.58
2018-09-30T11:31:59.451Z,16.54
2018-09-30T11:32:59.341Z,16.55
2018-09-30T11:33:59.333Z,16.65
2018-09-30T11:34:59.321Z,16.65
2018-09-30T11:35:59.364Z,16.65
2018-09-30T11:36:59.296Z,16.44
2018-09-30T11:37:59.286Z,16.43
2018-09-30T11:38:59.359Z,16.36
2018-09-30T11:39:59.333Z,16.39
2018-09-30T11:40:59.252Z,16.54
2018-09-30T11:41:59.302Z,16.58
2018-09-30T11:42:59.234Z,16.51
2018-09-30T11:43:59.223Z,16.54
2018-09-30T11:44:59.209Z,16.52
2018-09-30T11:45:59.196Z,16.59
2018-09-30T11:46:59.208Z,16.52
2018-09-30T11:47:59.320Z,16.28
2018-09-30T11:48:59.184Z,16.26
2018-09-30T11:49:59.200Z,16.36
2018-09-30T11:50:59.170Z,16.40
2018-09-30T11:51:59.149Z,16.62
2018-09-30T11:52:59.135Z,16.72
2018-09-30T11:53:59.209Z,16.95
2018-09-30T11:54:59.115Z,17.01
2018-09-30T11:55:59.126Z,17.09
2018-09-30T11:56:59.090Z,17.28
2018-09-30T11:57:59.061Z,17.38
2018-09-30T11:58:59.078Z,17.34
2018-09-30T11:59:59.089Z,17.57
2018-09-30T12:00:59.030Z,17.65
2018-09-30T12:01:59.092Z,17.73
2018-09-30T12:02:59.006Z,17.91
2018-09-30T12:03:58.995Z,18.09
2018-09-30T12:04:58.986Z,18.05
2018-09-30T12:05:59.012Z,18.27
2018-09-30T12:06:58.979Z,18.46
2018-09-30T12:07:58.955Z,18.63
2018-09-30T12:08:58.943Z,18.97
2018-09-30T12:09:58.938Z,19.07
2018-09-30T12:10:58.919Z,19.37
2018-09-30T12:11:58.955Z,19.60
2018-09-30T12:12:58.928Z,19.68
2018-09-30T12:13:58.935Z,19.77
2018-09-30T12:14:58.873Z,19.70
2018-09-30T12:15:58.863Z,19.74
2018-09-30T12:16:58.856Z,20.12
2018-09-30T12:17:58.884Z,20.46
2018-09-30T12:18:58.845Z,20.42
2018-09-30T12:19:58.824Z,20.65
2018-09-30T12:20:58.845Z,20.79
2018-09-30T12:21:58.825Z,20.71
2018-09-30T12:22:58.815Z,20.42
2018-09-30T12:23:58.822Z,20.73
2018-09-30T12:24:58.784Z,20.63
2018-09-30T12:25:58.818Z,20.74
2018-09-30T12:26:58.756Z,21.00
2018-09-30T12:27:58.733Z,21.19
2018-09-30T12:28:58.724Z,21.44
2018-09-30T12:29:58.756Z,21.62
2018-09-30T12:30:58.702Z,21.35
2018-09-30T12:31:58.689Z,21.75
2018-09-30T12:32:58.678Z,21.62
2018-09-30T12:33:58.666Z,21.69
2018-09-30T12:34:58.661Z,21.81
2018-09-30T12:35:58.683Z,21.91
2018-09-30T12:36:58.631Z,21.96
2018-09-30T12:37:58.621Z,21.97
2018-09-30T12:38:58.609Z,22.56
2018-09-30T12:39:58.602Z,22.76
2018-09-30T12:40:58.594Z,22.93
2018-09-30T12:41:58.627Z,23.04
2018-09-30T12:42:58.569Z,22.67
2018-09-30T12:43:58.564Z,22.67
2018-09-30T12:44:58.550Z,22.91
2018-09-30T12:45:58.536Z,22.53
2018-09-30T12:46:58.526Z,21.98
2018-09-30T12:47:58.553Z,22.21
2018-09-30T12:48:58.532Z,21.75
2018-09-30T12:49:58.492Z,21.28
2018-09-30T12:50:58.486Z,21.43
2018-09-30T12:51:58.473Z,21.19
2018-09-30T12:52:58.462Z,20.98
2018-09-30T12:53:58.497Z,21.51
2018-09-30T12:54:58.457Z,22.23
2018-09-30T12:55:58.436Z,22.67
2018-09-30T12:56:58.421Z,23.15
2018-09-30T12:57:58.418Z,23.04
2018-09-30T12:58:58.409Z,22.96
2018-09-30T12:59:58.426Z,23.10
2018-09-30T13:00:58.389Z,23.25
2018-09-30T13:01:58.367Z,23.10
2018-09-30T13:02:58.357Z,23.18
2018-09-30T13:03:58.347Z,23.42
2018-09-30T13:04:58.339Z,22.91
2018-09-30T13:05:58.360Z,22.30
2018-09-30T13:06:58.326Z,22.33
2018-09-30T13:07:58.329Z,22.71
2018-09-30T13:08:58.299Z,23.15